Time;durP1;ratioP1;P1;durP2;ratioP2;P2;SDS_P1;SDS_P2;PMS_P1;PMS_P2;Temp;Humidity;BMP_temperature;BMP_pressure;BME280_temperature;BME280_humidity;BME280_pressure;Samples;Min_cycle;Max_cycle;Signal;HPM_P1;HPM_P2
2022/03/02 00:04:36;;;;;;;9.20;5.70;;;;;;;5.50;30.44;101589.72;10333952;28;20541;-79
2022/03/02 00:09:38;;;;;;;7.83;5.67;;;;;;;5.41;31.33;101583.88;10334962;28;20198;-79
2022/03/02 00:14:40;;;;;;;9.70;5.40;;;;;;;5.63;30.66;101587.19;10335001;28;20226;-78
2022/03/02 00:19:42;;;;;;;6.43;5.47;;;;;;;5.31;31.18;101587.50;10325633;28;20288;-79
2022/03/02 00:24:50;;;;;;;9.43;6.27;;;;;;;5.43;31.23;101587.19;10332884;28;20559;-77
2022/03/02 00:29:52;;;;;;;11.63;6.40;;;;;;;5.18;31.18;101596.50;10331477;28;20283;-76
2022/03/02 00:34:55;;;;;;;8.50;5.87;;;;;;;5.43;30.71;101573.19;10332826;28;20246;-76
2022/03/02 00:39:57;;;;;;;9.20;5.83;;;;;;;5.79;29.31;101574.81;10332091;28;20202;-77
2022/03/02 00:44:59;;;;;;;8.60;5.67;;;;;;;5.54;29.95;101572.06;10311065;28;20621;-77
2022/03/02 00:50:03;;;;;;;17.90;6.23;;;;;;;5.75;29.65;101562.47;10330765;28;20213;-76
2022/03/02 00:55:06;;;;;;;10.50;5.60;;;;;;;5.25;30.91;101562.56;10331245;28;20194;-76
2022/03/02 01:00:09;;;;;;;12.13;6.30;;;;;;;5.22;30.89;101551.91;10332118;28;20445;-79
2022/03/02 01:05:11;;;;;;;9.40;5.97;;;;;;;5.07;32.05;101553.63;10327472;28;20639;-78
2022/03/02 01:10:15;;;;;;;8.47;5.07;;;;;;;5.11;30.94;101539.88;10309178;28;20209;-78
2022/03/02 01:15:18;;;;;;;11.27;6.20;;;;;;;5.18;30.66;101539.56;10326392;28;20261;-78
2022/03/02 01:20:20;;;;;;;11.37;6.00;;;;;;;4.88;31.99;101538.50;10337917;28;20264;-78
2022/03/02 01:25:22;;;;;;;7.30;4.50;;;;;;;5.26;31.64;101530.63;10330469;28;20277;-78
2022/03/02 01:30:24;;;;;;;10.70;5.40;;;;;;;4.88;31.89;101523.66;10330798;28;20194;-78
2022/03/02 01:35:26;;;;;;;8.50;5.63;;;;;;;4.80;31.06;101525.03;10331574;28;20194;-78
2022/03/02 01:40:29;;;;;;;10.03;5.83;;;;;;;5.08;31.46;101518.88;10330820;28;20198;-78
2022/03/02 01:45:31;;;;;;;10.47;6.50;;;;;;;4.88;31.52;101518.06;10330546;28;20316;-79
2022/03/02 01:50:33;;;;;;;8.40;5.83;;;;;;;4.50;32.27;101517.50;10329465;28;20271;-78
2022/03/02 01:55:36;;;;;;;13.13;6.20;;;;;;;4.65;32.06;101517.47;10330118;28;20604;-79
2022/03/02 02:00:38;;;;;;;7.57;5.27;;;;;;;4.35;33.13;101512.69;10329335;28;20194;-79
2022/03/02 02:05:41;;;;;;;8.37;5.23;;;;;;;4.57;32.65;101494.81;10329512;28;20265;-79
2022/03/02 02:10:43;;;;;;;10.33;5.53;;;;;;;4.54;32.97;101489.75;10342575;28;20288;-78
2022/03/02 02:15:45;;;;;;;9.60;6.03;;;;;;;4.52;32.90;101480.78;10328229;28;20234;-78
2022/03/02 02:20:47;;;;;;;9.63;5.70;;;;;;;4.35;33.65;101481.88;10328722;28;20233;-80
2022/03/02 02:25:50;;;;;;;11.53;5.83;;;;;;;4.36;33.66;101483.56;10328200;28;20261;-78
2022/03/02 02:30:56;;;;;;;9.23;5.90;;;;;;;4.03;33.71;101484.06;10328703;28;20237;-78
2022/03/02 02:35:58;;;;;;;6.60;5.27;;;;;;;4.30;32.97;101473.47;10329467;28;20248;-77
2022/03/02 02:41:01;;;;;;;11.50;5.57;;;;;;;4.32;33.44;101473.19;10331313;28;20260;-77
2022/03/02 02:46:03;;;;;;;10.87;5.43;;;;;;;4.40;33.32;101473.47;10321843;28;20700;-78
2022/03/02 02:51:06;;;;;;;8.87;5.30;;;;;;;4.31;33.29;101458.34;10327859;28;20280;-78
2022/03/02 02:56:08;;;;;;;10.00;6.00;;;;;;;4.15;33.73;101462.25;10327866;28;20225;-78
2022/03/02 03:01:10;;;;;;;9.00;5.03;;;;;;;4.16;34.01;101458.34;10313075;28;20206;-78
2022/03/02 03:06:13;;;;;;;10.43;5.17;;;;;;;4.46;33.52;101465.09;10309592;28;20280;-78
2022/03/02 03:11:15;;;;;;;9.80;5.87;;;;;;;3.91;34.48;101458.28;10318855;28;20233;-78
2022/03/02 03:16:17;;;;;;;9.17;6.00;;;;;;;4.29;33.14;101443.78;10334648;28;20226;-79
2022/03/02 03:21:20;;;;;;;7.90;5.73;;;;;;;4.19;33.46;101443.78;10341059;28;20209;-78
2022/03/02 03:26:22;;;;;;;7.90;5.47;;;;;;;4.35;32.65;101453.06;10343479;28;20217;-78
2022/03/02 03:31:24;;;;;;;7.33;4.80;;;;;;;4.22;33.15;101450.81;10343575;28;20591;-79
2022/03/02 03:36:27;;;;;;;9.17;5.77;;;;;;;4.38;33.52;101450.50;10343141;28;20472;-83
2022/03/02 03:41:29;;;;;;;8.33;5.50;;;;;;;4.30;32.20;101451.06;10343316;28;20587;-79
2022/03/02 03:46:31;;;;;;;6.30;5.03;;;;;;;4.23;33.36;101453.31;10342718;28;20225;-79
2022/03/02 03:51:34;;;;;;;10.23;6.03;;;;;;;4.15;33.43;101453.84;10346189;28;20210;-79
2022/03/02 03:56:36;;;;;;;7.97;5.10;;;;;;;4.19;33.39;101443.78;10325482;28;20190;-78
2022/03/02 04:01:38;;;;;;;8.77;5.57;;;;;;;3.97;33.96;101451.59;10340804;28;20206;-78
2022/03/02 04:06:41;;;;;;;9.00;5.37;;;;;;;4.20;33.24;101439.03;10333657;28;20637;-78
2022/03/02 04:11:43;;;;;;;9.07;5.07;;;;;;;4.00;33.34;101445.44;10318256;28;20252;-84
2022/03/02 04:16:45;;;;;;;8.17;5.37;;;;;;;3.82;33.72;101443.19;10335056;28;20253;-78
2022/03/02 04:21:47;;;;;;;8.10;6.00;;;;;;;3.87;33.61;101438.41;10334348;28;20235;-78
2022/03/02 04:26:50;;;;;;;8.63;5.53;;;;;;;3.83;33.83;101428.06;10334782;28;20311;-88
2022/03/02 04:31:52;;;;;;;11.67;5.13;;;;;;;3.87;33.90;101424.44;10332717;28;20194;-78
2022/03/02 04:36:54;;;;;;;12.60;5.93;;;;;;;3.63;34.44;101421.31;10334335;28;20213;-78
2022/03/02 04:41:56;;;;;;;11.23;6.50;;;;;;;3.75;33.73;101412.66;10334299;28;20578;-77
2022/03/02 04:46:58;;;;;;;9.47;5.90;;;;;;;3.59;34.35;101423.00;10347876;28;20229;-79
2022/03/02 04:52:01;;;;;;;11.00;5.67;;;;;;;3.32;34.56;101419.53;10348532;28;20206;-76
2022/03/02 04:57:05;;;;;;;15.33;6.37;;;;;;;3.33;35.20;101412.81;10334317;28;20206;-79
2022/03/02 05:02:07;;;;;;;8.40;5.90;;;;;;;3.18;35.24;101404.34;10332006;28;20202;-79
2022/03/02 05:07:09;;;;;;;13.60;6.83;;;;;;;3.38;34.93;101398.84;10326989;28;20276;-76
2022/03/02 05:12:12;;;;;;;9.93;5.60;;;;;;;2.88;35.81;101405.88;10332716;28;20649;-79
2022/03/02 05:17:14;;;;;;;8.77;5.33;;;;;;;2.87;35.21;101409.75;10331200;28;20226;-78
2022/03/02 05:22:17;;;;;;;12.20;6.30;;;;;;;3.14;34.96;101401.25;10331229;28;20206;-78
2022/03/02 05:27:19;;;;;;;10.57;6.17;;;;;;;2.99;35.39;101401.16;10331684;28;20261;-78
2022/03/02 05:32:21;;;;;;;13.47;5.80;;;;;;;3.03;34.77;101399.53;10332762;28;20214;-79
2022/03/02 05:37:24;;;;;;;16.00;6.13;;;;;;;3.19;34.21;101403.22;10314696;28;20206;-79
2022/03/02 05:42:26;;;;;;;11.63;5.83;;;;;;;3.04;34.30;101398.41;10329146;28;20230;-79
2022/03/02 05:47:28;;;;;;;12.23;6.57;;;;;;;2.91;34.68;101394.16;10330753;28;20343;-79
2022/03/02 05:52:30;;;;;;;9.63;5.43;;;;;;;3.14;33.87;101392.03;10329772;28;20261;-79
2022/03/02 05:57:32;;;;;;;15.57;6.00;;;;;;;3.08;34.14;101387.53;10289586;28;20210;-79
2022/03/02 06:02:35;;;;;;;14.23;5.73;;;;;;;3.14;33.83;101390.06;10303936;28;20263;-80
2022/03/02 06:07:37;;;;;;;9.83;5.00;;;;;;;3.25;33.90;101393.78;10316145;28;20258;-80
2022/03/02 06:12:40;;;;;;;14.03;5.90;;;;;;;2.92;34.66;101389.41;10320415;28;20260;-79
2022/03/02 06:17:42;;;;;;;14.90;6.07;;;;;;;3.48;33.72;101389.66;10313986;28;20229;-80
2022/03/02 06:22:45;;;;;;;9.50;5.77;;;;;;;3.54;33.90;101392.19;10356778;28;20217;-81
2022/03/02 06:27:47;;;;;;;13.57;5.67;;;;;;;3.36;33.96;101398.28;10330657;28;20222;-79
2022/03/02 06:32:49;;;;;;;13.47;6.00;;;;;;;3.67;33.20;101397.28;10353142;28;20609;-81
2022/03/02 06:37:51;;;;;;;14.40;5.87;;;;;;;3.86;32.22;101396.75;10340973;28;20213;-80
2022/03/02 06:43:02;;;;;;;15.23;5.93;;;;;;;3.99;32.44;101404.59;10346745;28;20256;-80
2022/03/02 06:48:13;;;;;;;10.03;5.73;;;;;;;4.09;32.37;101412.16;10348692;28;20295;-81
2022/03/02 06:53:16;;;;;;;11.53;5.67;;;;;;;4.29;31.67;101403.75;10358187;28;20205;-81
2022/03/02 06:58:20;;;;;;;11.23;6.20;;;;;;;4.33;31.03;101400.13;10370609;28;20256;-81
2022/03/02 07:03:26;;;;;;;9.07;5.77;;;;;;;3.94;31.63;101396.19;10345081;28;20205;-79
2022/03/02 07:08:28;;;;;;;11.53;5.50;;;;;;;4.27;31.20;101394.81;10364949;28;20221;-80
2022/03/02 07:13:33;;;;;;;8.17;5.50;;;;;;;3.78;32.10;101400.09;10359163;28;20279;-81
2022/03/02 07:18:35;;;;;;;11.93;5.90;;;;;;;4.18;31.38;101405.72;10352080;28;20256;-81
2022/03/02 07:23:51;;;;;;;9.57;6.10;;;;;;;4.00;31.10;101401.50;10365885;28;20209;-79
2022/03/02 07:28:54;;;;;;;16.17;8.03;;;;;;;4.03;30.97;101400.13;10360821;28;20228;-78
2022/03/02 07:33:58;;;;;;;11.43;7.30;;;;;;;4.30;30.50;101405.44;10363663;28;20491;-79
2022/03/02 07:39:01;;;;;;;15.37;8.70;;;;;;;4.31;31.37;101401.53;10353296;28;20194;-78
2022/03/02 07:44:04;;;;;;;12.97;6.07;;;;;;;4.30;31.47;101392.28;10362524;28;20237;-82
2022/03/02 07:49:06;;;;;;;11.33;6.50;;;;;;;4.55;32.03;101396.22;10325387;28;20221;-82
2022/03/02 07:54:10;;;;;;;14.17;8.83;;;;;;;4.50;30.16;101388.69;10338881;28;20206;-81
2022/03/02 07:59:12;;;;;;;15.97;7.97;;;;;;;4.96;30.51;101394.16;10369725;28;20545;-79
2022/03/02 08:04:15;;;;;;;10.90;7.53;;;;;;;4.82;30.39;101391.13;10347835;28;20236;-78
2022/03/02 08:09:18;;;;;;;10.03;5.80;;;;;;;4.81;29.47;101378.25;10349283;28;20522;-78
2022/03/02 08:14:24;;;;;;;12.10;7.03;;;;;;;4.72;28.53;101389.19;10364535;28;20299;-78
2022/03/02 08:19:26;;;;;;;14.00;6.37;;;;;;;5.19;28.68;101368.28;10368066;28;20198;-79
2022/03/02 08:24:29;;;;;;;12.03;6.03;;;;;;;5.11;28.53;101371.69;10348526;28;20201;-82
2022/03/02 08:29:32;;;;;;;9.17;6.07;;;;;;;5.86;27.70;101354.75;10376362;28;20307;-78
2022/03/02 08:34:34;;;;;;;9.97;6.40;;;;;;;6.36;26.36;101354.31;10362162;28;20693;-86
2022/03/02 08:39:37;;;;;;;12.40;6.10;;;;;;;6.57;27.28;101354.97;10344806;28;20249;-87
2022/03/02 08:44:39;;;;;;;13.10;6.70;;;;;;;6.67;26.64;101354.88;10341961;28;20201;-83
2022/03/02 08:49:42;;;;;;;13.03;6.03;;;;;;;6.70;25.76;101356.25;10322702;28;20224;-85
2022/03/02 08:54:45;;;;;;;10.63;5.33;;;;;;;6.92;25.95;101355.75;10339796;28;20206;-87
2022/03/02 08:59:51;;;;;;;20.83;8.73;;;;;;;6.22;28.42;101358.94;10334577;28;20253;-86
2022/03/02 09:04:54;;;;;;;26.73;9.40;;;;;;;5.69;28.98;101355.97;10336926;28;20264;-88
2022/03/02 09:09:58;;;;;;;22.60;9.10;;;;;;;5.72;29.23;101355.41;10341445;28;20222;-84
2022/03/02 09:15:00;;;;;;;17.03;9.13;;;;;;;7.03;27.78;101341.25;10319717;28;20569;-88
2022/03/02 09:20:05;;;;;;;20.43;8.57;;;;;;;6.84;27.51;101337.56;10332291;28;20193;-86
2022/03/02 09:25:07;;;;;;;13.27;6.93;;;;;;;7.28;25.68;101342.06;10335373;28;20257;-86
2022/03/02 09:30:11;;;;;;;12.90;7.83;;;;;;;7.46;26.03;101332.81;10359860;28;20293;-86
2022/03/02 09:35:14;;;;;;;11.23;7.60;;;;;;;6.82;26.62;101339.84;10369521;28;20535;-80
2022/03/02 09:40:28;;;;;;;13.07;7.60;;;;;;;6.99;26.55;101334.56;10343146;28;20205;-83
2022/03/02 09:45:32;;;;;;;12.17;7.00;;;;;;;7.37;25.20;101340.25;10344465;28;20201;-80
2022/03/02 09:50:38;;;;;;;12.87;7.20;;;;;;;6.68;26.42;101344.47;10345548;28;20221;-79
2022/03/02 09:55:41;;;;;;;10.53;7.03;;;;;;;7.49;24.75;101343.47;10330305;28;20213;-80
2022/03/02 10:00:47;;;;;;;11.37;6.93;;;;;;;7.57;24.69;101334.34;10334712;28;20454;-83
2022/03/02 10:05:50;;;;;;;11.80;6.80;;;;;;;8.09;24.72;101336.09;10331145;28;20202;-79
2022/03/02 10:10:55;;;;;;;11.93;6.33;;;;;;;8.09;24.12;101335.25;10339147;28;20583;-80
2022/03/02 10:16:02;;;;;;;10.40;5.47;;;;;;;7.42;23.82;101326.13;10335664;28;20234;-80
2022/03/02 10:21:05;;;;;;;13.27;6.13;;;;;;;8.38;23.16;101324.59;10333275;28;20202;-80
2022/03/02 10:26:12;;;;;;;8.90;5.97;;;;;;;8.19;23.52;101312.53;10340940;28;20283;-79
2022/03/02 10:31:44;;;;;;;7.80;5.90;;;;;;;7.70;23.78;101310.22;10353599;28;20198;-81
2022/03/02 10:36:51;;;;;;;7.67;5.00;;;;;;;7.75;23.01;101307.38;10340654;28;20635;-79
2022/03/02 10:41:54;;;;;;;8.53;4.50;;;;;;;8.85;21.15;101308.50;10316939;28;20198;-79
2022/03/02 10:47:02;;;;;;;8.63;5.40;;;;;;;8.71;20.49;101299.19;10341323;28;20271;-79
2022/03/02 10:52:05;;;;;;;9.47;5.40;;;;;;;7.52;22.90;101295.00;10338094;28;20205;-80
2022/03/02 10:57:11;;;;;;;5.77;4.80;;;;;;;7.78;21.41;101293.50;10342768;28;20225;-79
2022/03/02 11:02:16;;;;;;;8.53;5.87;;;;;;;7.67;22.20;101294.78;10343170;28;20213;-80
2022/03/02 11:07:19;;;;;;;10.70;5.70;;;;;;;7.93;22.02;101287.63;10330341;28;20570;-79
2022/03/02 11:12:25;;;;;;;7.57;4.43;;;;;;;8.49;21.03;101283.81;10340549;28;20509;-78
2022/03/02 11:17:27;;;;;;;9.20;5.43;;;;;;;8.32;21.44;101289.19;10344947;28;20214;-79
2022/03/02 11:22:30;;;;;;;8.13;5.50;;;;;;;8.55;21.61;101282.53;10346758;28;20209;-79
2022/03/02 11:27:40;;;;;;;8.97;5.63;;;;;;;8.56;21.64;101284.22;10343048;28;20218;-79
2022/03/02 11:32:45;;;;;;;8.60;4.80;;;;;;;7.85;22.36;101274.25;10326505;28;20206;-87
2022/03/02 11:37:58;;;;;;;6.33;4.93;;;;;;;9.23;21.39;101250.66;10337556;28;20468;-87
2022/03/02 11:43:15;;;;;;;7.53;5.20;;;;;;;9.08;20.89;101251.00;10361086;28;20201;-85
2022/03/02 11:48:24;;;;;;;8.00;5.40;;;;;;;8.06;21.73;101240.09;10336627;28;20245;-88
2022/03/02 11:53:29;;;;;;;6.90;5.60;;;;;;;9.26;20.81;101223.81;10336198;28;20274;-88
2022/03/02 11:59:07;;;;;;;8.53;5.77;;;;;;;9.13;20.93;101225.50;10351589;28;20201;-86
2022/03/02 12:04:18;;;;;;;7.90;5.37;;;;;;;8.81;20.50;101211.56;10373921;28;20200;-88
2022/03/02 12:09:27;;;;;;;8.27;5.70;;;;;;;9.57;19.38;101205.00;10351075;28;20241;-88
2022/03/02 12:14:38;;;;;;;11.33;5.83;;;;;;;9.46;19.73;101197.06;10364934;28;20234;-86
2022/03/02 12:19:40;;;;;;;8.13;5.20;;;;;;;8.94;20.50;101188.97;10333649;28;20260;-88
2022/03/02 12:24:44;;;;;;;6.53;5.20;;;;;;;9.52;19.36;101187.34;10342038;28;20252;-88
2022/03/02 12:29:53;;;;;;;8.27;4.83;;;;;;;8.99;19.12;101190.88;10342846;28;20300;-88
2022/03/02 12:34:57;;;;;;;9.13;5.28;;;;;;;9.96;18.90;101175.22;10339844;28;20229;-86
2022/03/02 12:40:02;;;;;;;7.77;5.03;;;;;;;9.50;18.13;101172.72;10340430;28;20194;-86
2022/03/02 12:45:04;;;;;;;7.93;4.90;;;;;;;9.47;18.89;101170.53;10331581;28;20205;-87
2022/03/02 12:50:12;;;;;;;6.27;4.97;;;;;;;9.28;17.50;101165.91;10345682;28;20530;-88
2022/03/02 12:55:16;;;;;;;7.30;4.77;;;;;;;9.36;18.36;101153.84;10338293;28;20197;-88
2022/03/02 13:00:21;;;;;;;7.07;4.50;;;;;;;10.34;17.30;101144.47;10343916;28;20202;-89
2022/03/02 13:05:31;;;;;;;6.40;4.60;;;;;;;9.48;18.61;101147.63;10345889;28;20257;-87
2022/03/02 13:10:33;;;;;;;7.30;4.70;;;;;;;10.43;17.45;101143.31;10325617;28;20573;-90
2022/03/02 13:15:40;;;;;;;5.35;3.90;;;;;;;10.88;16.67;101128.13;10339333;28;20233;-88
2022/03/02 13:20:55;;;;;;;7.97;4.67;;;;;;;10.67;17.42;101131.59;10336817;28;20214;-90
2022/03/02 13:25:58;;;;;;;5.85;4.78;;;;;;;10.31;18.77;101142.28;10330775;28;20549;-87
2022/03/02 13:31:16;;;;;;;6.70;4.70;;;;;;;9.56;19.08;101132.75;10324394;28;20277;-89
2022/03/02 13:36:30;;;;;;;6.23;5.57;;;;;;;10.13;18.87;101123.59;10333268;28;20210;-90
2022/03/02 13:41:49;;;;;;;7.95;5.13;;;;;;;9.99;19.23;101124.53;10326097;28;20494;-91
2022/03/02 13:47:06;;;;;;;6.13;5.20;;;;;;;10.91;18.75;101116.13;10353898;28;20230;-89
2022/03/02 13:52:08;;;;;;;8.27;6.00;;;;;;;9.88;19.31;101114.69;10339784;28;20202;-88
2022/03/02 13:57:19;;;;;;;10.77;5.63;;;;;;;10.10;18.95;101108.09;10337043;28;20201;-82
2022/03/02 14:02:22;;;;;;;8.63;5.73;;;;;;;10.74;18.23;101103.63;10356321;28;20255;-90
2022/03/02 14:07:27;;;;;;;6.78;5.57;;;;;;;11.19;17.76;101106.16;10342686;28;20240;-86
2022/03/02 14:12:30;;;;;;;9.50;5.70;;;;;;;11.11;17.89;101092.84;10349324;28;20562;-88
2022/03/02 14:17:34;;;;;;;7.20;5.20;;;;;;;10.58;18.32;101090.34;10348469;28;20194;-88
2022/03/02 14:22:36;;;;;;;7.53;5.13;;;;;;;10.40;18.66;101080.94;10325798;28;20233;-89
2022/03/02 14:27:39;;;;;;;8.07;6.20;;;;;;;10.92;18.74;101073.38;10327998;28;20241;-89
2022/03/02 14:32:47;;;;;;;7.13;6.13;;;;;;;10.94;18.46;101073.88;10334366;28;20202;-88
2022/03/02 14:37:55;;;;;;;7.30;5.38;;;;;;;10.95;18.57;101075.53;10331990;28;20606;-88
2022/03/02 14:43:02;;;;;;;9.35;5.63;;;;;;;11.30;17.95;101070.72;10350394;28;20202;-88
2022/03/02 14:48:18;;;;;;;8.83;5.50;;;;;;;11.04;19.12;101064.22;10341542;28;20626;-86
2022/03/02 14:53:23;;;;;;;6.97;4.97;;;;;;;9.98;19.59;101065.53;10337173;28;20206;-88
2022/03/02 14:58:35;;;;;;;8.47;5.17;;;;;;;10.68;19.69;101059.72;10337682;28;20217;-87
2022/03/02 15:03:37;;;;;;;10.60;5.15;;;;;;;10.21;19.39;101058.66;10342496;28;20496;-90
2022/03/02 15:08:46;;;;;;;8.43;5.40;;;;;;;11.06;18.13;101056.22;10341861;28;20249;-89
2022/03/02 15:19:36;;;;;;;6.70;5.20;;;;;;;11.05;18.86;101049.75;10341058;28;20205;-86
2022/03/02 15:24:48;;;;;;;8.47;6.17;;;;;;;9.99;20.52;101056.72;10323703;28;20214;-88
2022/03/02 15:29:51;;;;;;;7.90;5.50;;;;;;;10.28;19.03;101053.31;10324289;28;20229;-88
2022/03/02 15:34:59;;;;;;;8.80;5.83;;;;;;;11.04;19.60;101033.91;10338045;28;20225;-89
2022/03/02 15:40:11;;;;;;;7.80;5.37;;;;;;;10.26;19.46;101037.84;10325397;28;20198;-85
2022/03/02 15:45:33;;;;;;;8.27;4.80;;;;;;;10.22;18.62;101031.22;10342419;28;20256;-89
2022/03/02 15:50:38;;;;;;;6.87;4.80;;;;;;;10.22;18.64;101031.22;10344521;28;20696;-90
2022/03/02 15:55:47;;;;;;;6.75;4.82;;;;;;;10.41;18.64;101031.72;10366888;28;20279;-91
2022/03/02 16:00:50;;;;;;;6.93;5.30;;;;;;;9.58;20.11;101042.91;10333662;28;20619;-86
2022/03/02 16:05:57;;;;;;;7.80;5.17;;;;;;;10.28;20.43;101029.88;10340222;28;20209;-86
2022/03/02 16:11:12;;;;;;;8.90;5.00;;;;;;;9.71;20.30;101027.03;10351785;28;20218;-88
2022/03/02 16:16:16;;;;;;;6.87;5.37;;;;;;;10.22;20.35;101028.38;10332357;28;20229;-80
2022/03/02 16:21:24;;;;;;;4.93;4.37;;;;;;;9.29;20.96;101025.66;10319057;28;20202;-79
2022/03/02 16:26:32;;;;;;;7.77;5.00;;;;;;;10.12;20.76;101023.03;10332460;28;20206;-78
2022/03/02 16:31:35;;;;;;;5.97;4.90;;;;;;;8.98;22.71;101025.63;10333166;28;20296;-84
2022/03/02 16:36:44;;;;;;;7.30;5.93;;;;;;;9.75;21.26;101022.41;10314403;28;20229;-77
2022/03/02 16:41:47;;;;;;;7.03;5.37;;;;;;;8.99;22.84;101028.13;10323211;28;20236;-88
2022/03/02 16:46:49;;;;;;;6.17;4.93;;;;;;;9.53;22.29;101023.31;10334976;28;20226;-83
2022/03/02 16:51:51;;;;;;;7.83;4.47;;;;;;;9.21;21.38;101024.44;10338795;28;20304;-84
2022/03/02 16:56:53;;;;;;;5.60;4.20;;;;;;;8.96;21.73;101027.94;10333685;28;20202;-79
2022/03/02 17:01:56;;;;;;;4.63;4.23;;;;;;;9.45;21.18;101021.25;10334404;28;20197;-78
2022/03/02 17:06:59;;;;;;;5.63;4.10;;;;;;;9.47;20.86;101032.22;10325953;28;20210;-81
2022/03/02 17:12:01;;;;;;;8.97;4.90;;;;;;;9.39;22.01;101025.38;10336860;28;20253;-78
2022/03/02 17:17:03;;;;;;;5.13;4.40;;;;;;;8.92;20.26;101032.56;10331042;28;20229;-77
2022/03/02 17:22:06;;;;;;;8.10;5.23;;;;;;;8.98;21.60;101036.91;10330358;28;20198;-79
2022/03/02 17:27:08;;;;;;;5.77;4.67;;;;;;;9.25;21.21;101024.63;10330931;28;20546;-77
2022/03/02 17:32:10;;;;;;;8.83;6.53;;;;;;;8.49;23.67;101034.97;10313678;28;20316;-83
2022/03/02 17:37:13;;;;;;;13.30;6.30;;;;;;;8.18;22.84;101038.47;10313253;28;20201;-77
2022/03/02 17:42:19;;;;;;;8.57;5.80;;;;;;;8.48;22.20;101033.31;10309047;28;20222;-83
2022/03/02 17:47:21;;;;;;;7.53;5.60;;;;;;;8.59;21.93;101032.75;10329647;28;20260;-87
2022/03/02 17:52:24;;;;;;;9.30;6.33;;;;;;;8.25;22.73;101040.88;10331689;28;20221;-88
2022/03/02 17:57:26;;;;;;;7.50;5.43;;;;;;;8.63;21.51;101042.25;10333012;28;20206;-90
2022/03/02 18:02:28;;;;;;;5.63;4.70;;;;;;;8.67;22.17;101037.63;10332725;28;20202;-91
2022/03/02 18:07:31;;;;;;;6.40;4.67;;;;;;;8.06;21.68;101046.63;10328938;28;20275;-89
2022/03/02 18:12:34;;;;;;;8.07;5.43;;;;;;;8.17;23.22;101027.53;10326093;28;20253;-89
2022/03/02 18:17:37;;;;;;;9.60;6.20;;;;;;;7.92;23.90;101031.72;10334591;28;20206;-89
2022/03/02 18:22:39;;;;;;;7.87;5.23;;;;;;;7.86;24.66;101033.81;10334643;28;20228;-90
2022/03/02 18:27:42;;;;;;;7.33;5.10;;;;;;;7.79;24.20;101027.75;10313169;28;20201;-85
2022/03/02 18:32:44;;;;;;;6.17;5.30;;;;;;;7.83;23.94;101027.97;10332378;28;20202;-88
2022/03/02 18:37:47;;;;;;;14.10;6.60;;;;;;;7.68;24.09;101036.69;10331407;28;20232;-82
2022/03/02 18:42:49;;;;;;;13.10;6.60;;;;;;;7.56;24.72;101035.22;10330150;28;20206;-89
2022/03/02 18:47:51;;;;;;;8.40;6.50;;;;;;;7.06;25.37;101039.81;10333158;28;20209;-89
2022/03/02 18:52:55;;;;;;;8.97;6.17;;;;;;;7.24;25.44;101033.28;10322249;28;20205;-85
2022/03/02 18:57:58;;;;;;;10.90;6.40;;;;;;;6.65;24.91;101036.81;10318252;28;20201;-82
2022/03/02 19:03:02;;;;;;;9.20;6.27;;;;;;;7.04;25.13;101027.22;10342180;28;20495;-79
2022/03/02 19:08:07;;;;;;;8.97;6.27;;;;;;;6.83;24.97;101026.72;10337131;28;20197;-89
2022/03/02 19:13:09;;;;;;;13.87;8.77;;;;;;;6.92;25.14;101032.47;10333574;28;20300;-81
2022/03/02 19:18:11;;;;;;;11.50;8.00;;;;;;;7.12;25.68;101032.13;10336552;28;20214;-87
2022/03/02 19:23:16;;;;;;;9.30;7.00;;;;;;;7.15;25.56;101029.53;10331266;28;20544;-87
2022/03/02 19:28:19;;;;;;;20.30;9.77;;;;;;;6.89;25.13;101034.75;10338190;28;20279;-90
2022/03/02 19:33:21;;;;;;;11.60;6.57;;;;;;;6.87;25.68;101028.59;10343437;28;20229;-88
2022/03/02 19:43:44;;;;;;;10.20;6.17;;;;;;;6.52;26.88;101032.78;10328140;28;20380;-80
2022/03/02 19:48:49;;;;;;;15.97;8.83;;;;;;;6.55;26.49;101031.34;10315945;28;20667;-77
2022/03/02 19:53:52;;;;;;;14.23;7.70;;;;;;;6.58;26.07;101027.13;10332639;28;20202;-80
2022/03/02 19:58:59;;;;;;;9.73;6.00;;;;;;;6.75;25.96;101027.41;10332379;28;20445;-78
2022/03/02 20:04:01;;;;;;;9.63;6.67;;;;;;;6.78;26.32;101027.63;10337125;28;20210;-88
2022/03/02 20:09:04;;;;;;;7.87;6.67;;;;;;;6.37;27.55;101030.22;10332390;28;20257;-78
2022/03/02 20:14:06;;;;;;;10.70;6.63;;;;;;;6.15;28.04;101039.25;10337258;28;20265;-76
2022/03/02 20:19:10;;;;;;;8.20;5.87;;;;;;;6.14;27.56;101042.34;10332483;28;20201;-84
2022/03/02 20:24:12;;;;;;;8.37;5.73;;;;;;;5.85;27.91;101045.22;10331126;28;20284;-79
2022/03/02 20:29:15;;;;;;;10.23;6.17;;;;;;;6.25;27.87;101043.88;10323751;28;20257;-76
2022/03/02 20:34:18;;;;;;;9.67;6.50;;;;;;;6.28;27.44;101040.47;10330731;28;20256;-78
2022/03/02 20:39:21;;;;;;;11.83;6.80;;;;;;;5.90;28.63;101030.31;10330682;28;20476;-77
2022/03/02 20:44:23;;;;;;;9.37;6.70;;;;;;;5.52;29.19;101034.94;10326962;28;20202;-76
2022/03/02 20:49:28;;;;;;;21.97;12.43;;;;;;;5.52;29.20;101047.00;10327749;28;20716;-80
2022/03/02 20:54:31;;;;;;;25.30;13.47;;;;;;;5.31;29.75;101031.50;10330594;28;20267;-78
2022/03/02 20:59:33;;;;;;;24.97;14.07;;;;;;;5.31;30.06;101031.50;10332049;28;20264;-78
2022/03/02 21:04:35;;;;;;;25.53;14.10;;;;;;;5.08;30.17;101036.78;10315534;28;20218;-79
2022/03/02 21:09:38;;;;;;;29.37;14.97;;;;;;;5.04;30.15;101035.69;10338590;28;20653;-90
2022/03/02 21:14:40;;;;;;;20.90;13.43;;;;;;;5.01;29.96;101041.91;10330541;28;20300;-78
2022/03/02 21:19:45;;;;;;;19.77;13.03;;;;;;;4.53;30.77;101032.47;10331875;28;20601;-77
2022/03/02 21:24:48;;;;;;;29.30;12.30;;;;;;;4.67;31.13;101029.84;10332208;28;20606;-82
2022/03/02 21:29:50;;;;;;;21.07;10.83;;;;;;;4.57;31.49;101027.13;10312904;28;20403;-79
2022/03/02 21:34:53;;;;;;;18.17;10.07;;;;;;;4.02;32.04;101017.91;10298803;28;20635;-77
2022/03/02 21:39:55;;;;;;;14.97;9.80;;;;;;;4.30;31.84;101020.00;10331252;28;20233;-76
2022/03/02 21:44:58;;;;;;;19.13;9.60;;;;;;;3.84;32.49;101015.78;10331596;28;20202;-76
2022/03/02 21:50:01;;;;;;;17.40;10.47;;;;;;;4.09;32.17;101015.66;10330109;28;20272;-83
2022/03/02 21:55:06;;;;;;;17.00;11.60;;;;;;;4.01;32.47;101019.03;10323668;28;20262;-78
2022/03/02 22:00:10;;;;;;;17.33;10.87;;;;;;;3.60;33.04;101026.78;10332718;28;20202;-79
2022/03/02 22:05:12;;;;;;;19.13;12.27;;;;;;;3.73;32.96;101011.34;10317349;28;20210;-88
2022/03/02 22:10:14;;;;;;;18.10;11.57;;;;;;;3.74;32.96;100999.03;10330763;28;20253;-80
2022/03/02 22:15:17;;;;;;;15.97;11.20;;;;;;;3.44;33.26;101000.00;10335748;28;20280;-78
2022/03/02 22:20:19;;;;;;;18.60;10.63;;;;;;;3.58;33.45;100999.09;10350961;28;20518;-84
2022/03/02 22:25:21;;;;;;;15.57;10.17;;;;;;;3.16;33.92;101004.22;10330123;28;20229;-87
2022/03/02 22:30:23;;;;;;;18.33;9.90;;;;;;;3.01;34.03;101013.47;10324729;28;20284;-77
2022/03/02 22:35:26;;;;;;;16.27;10.23;;;;;;;3.14;34.23;101014.84;10329321;28;20225;-77
2022/03/02 22:40:28;;;;;;;14.60;9.57;;;;;;;3.30;34.02;101014.56;10328597;28;20201;-77
2022/03/02 22:45:30;;;;;;;15.77;10.30;;;;;;;2.99;34.46;101027.69;10324798;28;20288;-77
2022/03/02 22:50:32;;;;;;;12.20;9.67;;;;;;;2.96;34.76;101036.63;10332395;28;20562;-78
2022/03/02 22:55:35;;;;;;;20.37;9.83;;;;;;;2.82;34.90;101027.13;10327660;28;20284;-77
2022/03/02 23:00:46;;;;;;;12.90;9.43;;;;;;;2.78;35.30;101037.22;10326600;28;20210;-77
2022/03/02 23:16:33;;;;;;;15.50;9.87;;;;;;;2.60;35.31;101023.78;10328736;28;20233;-76
2022/03/02 23:21:35;;;;;;;15.63;9.47;;;;;;;2.67;35.27;101029.13;10316262;28;20230;-75
2022/03/02 23:26:38;;;;;;;13.43;8.70;;;;;;;2.59;35.47;101022.13;10320199;28;20206;-82
2022/03/02 23:31:40;;;;;;;16.40;9.93;;;;;;;2.64;35.58;101016.53;10327152;28;20230;-80
2022/03/02 23:36:42;;;;;;;16.10;9.77;;;;;;;2.56;35.94;101012.34;10331164;28;20233;-77
2022/03/02 23:41:44;;;;;;;13.50;10.13;;;;;;;2.40;35.84;101009.84;10330950;28;20229;-76
2022/03/02 23:46:46;;;;;;;14.63;9.47;;;;;;;2.47;35.31;101004.81;10328306;28;20237;-76